sensor_id;sensor_type;location;lat;lon;timestamp;pressure;altitude;pressure_sealevel;temperature
31528;BMP280;10206;48.012;10.030;2023-02-01T00:00:03;95400.47;;;5.60
31528;BMP280;10206;48.012;10.030;2023-02-01T00:02:30;95399.69;;;5.65
31528;BMP280;10206;48.012;10.030;2023-02-01T00:04:56;95396.41;;;5.35
31528;BMP280;10206;48.012;10.030;2023-02-01T00:07:22;95387.31;;;5.51
31528;BMP280;10206;48.012;10.030;2023-02-01T00:09:48;95385.69;;;5.61
31528;BMP280;10206;48.012;10.030;2023-02-01T00:12:14;95384.16;;;5.47
31528;BMP280;10206;48.012;10.030;2023-02-01T00:14:40;95378.13;;;5.72
31528;BMP280;10206;48.012;10.030;2023-02-01T00:17:06;95376.25;;;5.67
31528;BMP280;10206;48.012;10.030;2023-02-01T00:19:33;95374.75;;;5.53
31528;BMP280;10206;48.012;10.030;2023-02-01T00:22:00;95374.00;;;5.53
31528;BMP280;10206;48.012;10.030;2023-02-01T00:24:26;95380.06;;;5.40
31528;BMP280;10206;48.012;10.030;2023-02-01T00:26:53;95386.16;;;5.65
31528;BMP280;10206;48.012;10.030;2023-02-01T00:29:20;95388.22;;;5.72
31528;BMP280;10206;48.012;10.030;2023-02-01T00:31:49;95380.25;;;5.80
31528;BMP280;10206;48.012;10.030;2023-02-01T00:34:16;95379.69;;;6.00
31528;BMP280;10206;48.012;10.030;2023-02-01T00:36:43;95382.53;;;5.57
31528;BMP280;10206;48.012;10.030;2023-02-01T00:39:10;95374.66;;;5.40
31528;BMP280;10206;48.012;10.030;2023-02-01T00:41:36;95377.38;;;5.72
31528;BMP280;10206;48.012;10.030;2023-02-01T00:44:03;95363.41;;;5.55
31528;BMP280;10206;48.012;10.030;2023-02-01T00:46:29;95369.72;;;5.76
31528;BMP280;10206;48.012;10.030;2023-02-01T00:48:56;95365.56;;;5.56
31528;BMP280;10206;48.012;10.030;2023-02-01T00:51:24;95369.66;;;5.63
31528;BMP280;10206;48.012;10.030;2023-02-01T00:53:51;95357.81;;;5.66
31528;BMP280;10206;48.012;10.030;2023-02-01T00:56:17;95355.44;;;5.44
31528;BMP280;10206;48.012;10.030;2023-02-01T00:58:43;95357.28;;;4.98
31528;BMP280;10206;48.012;10.030;2023-02-01T01:01:21;95357.28;;;5.36
31528;BMP280;10206;48.012;10.030;2023-02-01T01:03:50;95362.13;;;5.56
31528;BMP280;10206;48.012;10.030;2023-02-01T01:06:22;95362.25;;;5.32
31528;BMP280;10206;48.012;10.030;2023-02-01T01:08:51;95370.59;;;5.34
31528;BMP280;10206;48.012;10.030;2023-02-01T01:11:22;95364.00;;;5.48
31528;BMP280;10206;48.012;10.030;2023-02-01T01:13:49;95365.75;;;5.45
31528;BMP280;10206;48.012;10.030;2023-02-01T01:16:16;95364.56;;;5.41
31528;BMP280;10206;48.012;10.030;2023-02-01T01:18:43;95363.03;;;5.27
31528;BMP280;10206;48.012;10.030;2023-02-01T01:21:11;95360.22;;;5.19
31528;BMP280;10206;48.012;10.030;2023-02-01T01:23:37;95363.88;;;5.22
31528;BMP280;10206;48.012;10.030;2023-02-01T01:26:22;95355.81;;;5.35
31528;BMP280;10206;48.012;10.030;2023-02-01T01:28:49;95354.00;;;5.56
31528;BMP280;10206;48.012;10.030;2023-02-01T01:31:17;95347.06;;;5.29
31528;BMP280;10206;48.012;10.030;2023-02-01T01:33:44;95337.78;;;5.56
31528;BMP280;10206;48.012;10.030;2023-02-01T01:36:13;95327.41;;;5.60
31528;BMP280;10206;48.012;10.030;2023-02-01T01:38:40;95330.22;;;5.54
31528;BMP280;10206;48.012;10.030;2023-02-01T01:41:07;95320.88;;;5.37
31528;BMP280;10206;48.012;10.030;2023-02-01T01:43:54;95322.72;;;5.29
31528;BMP280;10206;48.012;10.030;2023-02-01T01:46:29;95327.94;;;5.40
31528;BMP280;10206;48.012;10.030;2023-02-01T01:49:18;95322.44;;;5.32
31528;BMP280;10206;48.012;10.030;2023-02-01T01:51:54;95317.81;;;5.27
31528;BMP280;10206;48.012;10.030;2023-02-01T01:54:25;95313.78;;;5.34
31528;BMP280;10206;48.012;10.030;2023-02-01T01:56:57;95321.91;;;5.34
31528;BMP280;10206;48.012;10.030;2023-02-01T01:59:24;95327.25;;;5.21
31528;BMP280;10206;48.012;10.030;2023-02-01T02:01:51;95325.13;;;5.14
31528;BMP280;10206;48.012;10.030;2023-02-01T02:04:18;95316.72;;;5.17
31528;BMP280;10206;48.012;10.030;2023-02-01T02:06:54;95315.47;;;5.37
31528;BMP280;10206;48.012;10.030;2023-02-01T02:09:22;95309.19;;;4.91
31528;BMP280;10206;48.012;10.030;2023-02-01T02:11:48;95311.78;;;5.02
31528;BMP280;10206;48.012;10.030;2023-02-01T02:14:16;95316.34;;;5.07
31528;BMP280;10206;48.012;10.030;2023-02-01T02:17:03;95313.03;;;5.33
31528;BMP280;10206;48.012;10.030;2023-02-01T02:28:39;95307.28;;;5.42
31528;BMP280;10206;48.012;10.030;2023-02-01T02:39:51;95286.25;;;5.35
31528;BMP280;10206;48.012;10.030;2023-02-01T02:42:37;95297.94;;;5.25
31528;BMP280;10206;48.012;10.030;2023-02-01T02:45:44;95306.56;;;5.23
31528;BMP280;10206;48.012;10.030;2023-02-01T02:48:42;95299.47;;;5.39
31528;BMP280;10206;48.012;10.030;2023-02-01T02:51:13;95300.31;;;5.47
31528;BMP280;10206;48.012;10.030;2023-02-01T02:54:24;95292.03;;;5.58
31528;BMP280;10206;48.012;10.030;2023-02-01T02:57:13;95300.16;;;5.71
31528;BMP280;10206;48.012;10.030;2023-02-01T03:00:02;95294.25;;;5.41
31528;BMP280;10206;48.012;10.030;2023-02-01T03:02:49;95294.09;;;5.52
31528;BMP280;10206;48.012;10.030;2023-02-01T03:05:35;95285.22;;;5.38
31528;BMP280;10206;48.012;10.030;2023-02-01T03:08:09;95274.94;;;5.50
31528;BMP280;10206;48.012;10.030;2023-02-01T03:11:04;95279.94;;;5.59
31528;BMP280;10206;48.012;10.030;2023-02-01T03:13:45;95277.63;;;5.50
31528;BMP280;10206;48.012;10.030;2023-02-01T03:17:06;95280.81;;;5.67
31528;BMP280;10206;48.012;10.030;2023-02-01T03:19:29;95286.34;;;5.43
31528;BMP280;10206;48.012;10.030;2023-02-01T03:22:05;95287.38;;;5.40
31528;BMP280;10206;48.012;10.030;2023-02-01T03:24:33;95292.75;;;5.58
31528;BMP280;10206;48.012;10.030;2023-02-01T03:27:32;95289.72;;;5.49
31528;BMP280;10206;48.012;10.030;2023-02-01T03:30:21;95291.03;;;5.42
31528;BMP280;10206;48.012;10.030;2023-02-01T03:32:51;95293.63;;;5.66
31528;BMP280;10206;48.012;10.030;2023-02-01T03:35:40;95286.22;;;5.67
31528;BMP280;10206;48.012;10.030;2023-02-01T03:41:27;95286.81;;;5.60
31528;BMP280;10206;48.012;10.030;2023-02-01T03:44:15;95275.66;;;5.50
31528;BMP280;10206;48.012;10.030;2023-02-01T03:47:02;95269.75;;;5.52
31528;BMP280;10206;48.012;10.030;2023-02-01T03:49:45;95268.97;;;5.70
31528;BMP280;10206;48.012;10.030;2023-02-01T03:52:20;95269.09;;;5.46
31528;BMP280;10206;48.012;10.030;2023-02-01T03:54:47;95289.97;;;5.64
31528;BMP280;10206;48.012;10.030;2023-02-01T03:57:18;95295.81;;;5.68
31528;BMP280;10206;48.012;10.030;2023-02-01T03:59:47;95292.38;;;5.67
31528;BMP280;10206;48.012;10.030;2023-02-01T04:02:13;95300.28;;;5.79
31528;BMP280;10206;48.012;10.030;2023-02-01T04:04:39;95312.00;;;5.55
31528;BMP280;10206;48.012;10.030;2023-02-01T04:07:05;95313.91;;;5.73
31528;BMP280;10206;48.012;10.030;2023-02-01T04:09:31;95309.75;;;5.85
31528;BMP280;10206;48.012;10.030;2023-02-01T04:11:57;95314.75;;;5.68
31528;BMP280;10206;48.012;10.030;2023-02-01T04:14:23;95310.19;;;5.89
31528;BMP280;10206;48.012;10.030;2023-02-01T04:16:49;95315.19;;;5.85
31528;BMP280;10206;48.012;10.030;2023-02-01T04:19:15;95314.81;;;5.62
31528;BMP280;10206;48.012;10.030;2023-02-01T04:21:41;95310.13;;;5.63
31528;BMP280;10206;48.012;10.030;2023-02-01T04:24:08;95315.75;;;5.52
31528;BMP280;10206;48.012;10.030;2023-02-01T04:26:34;95310.34;;;5.52
31528;BMP280;10206;48.012;10.030;2023-02-01T04:29:00;95323.38;;;5.35
31528;BMP280;10206;48.012;10.030;2023-02-01T04:31:26;95328.13;;;5.29
31528;BMP280;10206;48.012;10.030;2023-02-01T04:33:54;95332.13;;;5.41
31528;BMP280;10206;48.012;10.030;2023-02-01T04:36:21;95314.81;;;5.62
31528;BMP280;10206;48.012;10.030;2023-02-01T04:38:49;95322.94;;;5.62
31528;BMP280;10206;48.012;10.030;2023-02-01T04:41:15;95328.09;;;5.79
31528;BMP280;10206;48.012;10.030;2023-02-01T04:43:48;95299.84;;;5.43
31528;BMP280;10206;48.012;10.030;2023-02-01T04:46:15;95310.34;;;5.52
31528;BMP280;10206;48.012;10.030;2023-02-01T04:48:41;95299.72;;;5.54
31528;BMP280;10206;48.012;10.030;2023-02-01T04:51:08;95302.47;;;5.35
31528;BMP280;10206;48.012;10.030;2023-02-01T04:53:35;95302.34;;;5.41
31528;BMP280;10206;48.012;10.030;2023-02-01T04:56:01;95304.69;;;5.50
31528;BMP280;10206;48.012;10.030;2023-02-01T04:58:27;95302.44;;;5.54
31528;BMP280;10206;48.012;10.030;2023-02-01T05:00:53;95291.50;;;5.59
31528;BMP280;10206;48.012;10.030;2023-02-01T05:03:19;95291.41;;;5.52
31528;BMP280;10206;48.012;10.030;2023-02-01T05:05:48;95303.78;;;5.29
31528;BMP280;10206;48.012;10.030;2023-02-01T05:08:15;95298.88;;;5.27
31528;BMP280;10206;48.012;10.030;2023-02-01T05:10:41;95290.25;;;5.60
31528;BMP280;10206;48.012;10.030;2023-02-01T05:13:08;95284.06;;;5.15
31528;BMP280;10206;48.012;10.030;2023-02-01T05:15:55;95280.91;;;5.11
31528;BMP280;10206;48.012;10.030;2023-02-01T05:18:21;95277.97;;;5.59
31528;BMP280;10206;48.012;10.030;2023-02-01T05:20:47;95304.94;;;5.52
31528;BMP280;10206;48.012;10.030;2023-02-01T05:23:13;95309.63;;;5.33
31528;BMP280;10206;48.012;10.030;2023-02-01T05:25:39;95319.03;;;5.45
31528;BMP280;10206;48.012;10.030;2023-02-01T05:28:05;95316.09;;;5.43
31528;BMP280;10206;48.012;10.030;2023-02-01T05:30:32;95324.66;;;5.47
31528;BMP280;10206;48.012;10.030;2023-02-01T05:32:58;95324.34;;;5.82
31528;BMP280;10206;48.012;10.030;2023-02-01T05:35:24;95332.19;;;5.54
31528;BMP280;10206;48.012;10.030;2023-02-01T05:37:50;95327.41;;;5.60
31528;BMP280;10206;48.012;10.030;2023-02-01T05:40:16;95326.22;;;5.74
31528;BMP280;10206;48.012;10.030;2023-02-01T05:42:42;95321.22;;;5.78
31528;BMP280;10206;48.012;10.030;2023-02-01T05:45:09;95318.50;;;5.78
31528;BMP280;10206;48.012;10.030;2023-02-01T05:47:35;95331.78;;;5.63
31528;BMP280;10206;48.012;10.030;2023-02-01T05:50:02;95331.78;;;5.63
31528;BMP280;10206;48.012;10.030;2023-02-01T05:52:28;95335.25;;;5.45
31528;BMP280;10206;48.012;10.030;2023-02-01T05:54:54;95331.63;;;5.74
31528;BMP280;10206;48.012;10.030;2023-02-01T05:57:20;95321.53;;;5.56
31528;BMP280;10206;48.012;10.030;2023-02-01T05:59:46;95314.28;;;5.51
31528;BMP280;10206;48.012;10.030;2023-02-01T06:02:13;95320.97;;;5.63
31528;BMP280;10206;48.012;10.030;2023-02-01T06:04:39;95329.31;;;5.65
31528;BMP280;10206;48.012;10.030;2023-02-01T06:07:06;95341.63;;;5.47
31528;BMP280;10206;48.012;10.030;2023-02-01T06:09:34;95336.78;;;5.40
31528;BMP280;10206;48.012;10.030;2023-02-01T06:12:00;95334.09;;;5.40
31528;BMP280;10206;48.012;10.030;2023-02-01T06:14:27;95353.63;;;5.84
31528;BMP280;10206;48.012;10.030;2023-02-01T06:16:54;95343.47;;;5.71
31528;BMP280;10206;48.012;10.030;2023-02-01T06:19:21;95328.94;;;5.55
31528;BMP280;10206;48.012;10.030;2023-02-01T06:21:47;95335.03;;;5.61
31528;BMP280;10206;48.012;10.030;2023-02-01T06:24:13;95330.06;;;5.47
31528;BMP280;10206;48.012;10.030;2023-02-01T06:26:39;95328.34;;;5.62
31528;BMP280;10206;48.012;10.030;2023-02-01T06:29:07;95346.03;;;5.32
31528;BMP280;10206;48.012;10.030;2023-02-01T06:31:33;95332.59;;;5.58
31528;BMP280;10206;48.012;10.030;2023-02-01T06:34:00;95336.66;;;5.51
31528;BMP280;10206;48.012;10.030;2023-02-01T06:36:26;95339.69;;;5.61
31528;BMP280;10206;48.012;10.030;2023-02-01T06:38:52;95344.00;;;5.69
31528;BMP280;10206;48.012;10.030;2023-02-01T06:41:18;95331.97;;;5.52
31528;BMP280;10206;48.012;10.030;2023-02-01T06:43:46;95343.38;;;5.45
31528;BMP280;10206;48.012;10.030;2023-02-01T06:46:13;95346.09;;;5.77
31528;BMP280;10206;48.012;10.030;2023-02-01T06:48:39;95340.03;;;5.70
31528;BMP280;10206;48.012;10.030;2023-02-01T06:51:06;95335.91;;;5.51
31528;BMP280;10206;48.012;10.030;2023-02-01T06:53:32;95344.03;;;5.51
31528;BMP280;10206;48.012;10.030;2023-02-01T06:56:01;95346.00;;;5.50
31528;BMP280;10206;48.012;10.030;2023-02-01T06:58:32;95340.28;;;5.03
31528;BMP280;10206;48.012;10.030;2023-02-01T07:01:05;95335.66;;;5.17
31528;BMP280;10206;48.012;10.030;2023-02-01T07:03:31;95330.47;;;5.00
31528;BMP280;10206;48.012;10.030;2023-02-01T07:05:58;95336.69;;;5.33
31528;BMP280;10206;48.012;10.030;2023-02-01T07:08:26;95331.00;;;5.49
31528;BMP280;10206;48.012;10.030;2023-02-01T07:10:52;95341.28;;;5.19
31528;BMP280;10206;48.012;10.030;2023-02-01T07:13:19;95336.06;;;5.40
31528;BMP280;10206;48.012;10.030;2023-02-01T07:15:45;95338.72;;;5.08
31528;BMP280;10206;48.012;10.030;2023-02-01T07:18:14;95333.22;;;5.51
31528;BMP280;10206;48.012;10.030;2023-02-01T07:20:40;95343.19;;;5.56
31528;BMP280;10206;48.012;10.030;2023-02-01T07:23:08;95339.47;;;5.59
31528;BMP280;10206;48.012;10.030;2023-02-01T07:25:35;95343.00;;;5.54
31528;BMP280;10206;48.012;10.030;2023-02-01T07:28:01;95338.25;;;5.41
31528;BMP280;10206;48.012;10.030;2023-02-01T07:30:27;95350.22;;;5.46
31528;BMP280;10206;48.012;10.030;2023-02-01T07:32:53;95354.34;;;5.34
31528;BMP280;10206;48.012;10.030;2023-02-01T07:35:19;95339.66;;;5.48
31528;BMP280;10206;48.012;10.030;2023-02-01T07:37:45;95334.28;;;5.61
31528;BMP280;10206;48.012;10.030;2023-02-01T07:40:12;95337.03;;;5.42
31528;BMP280;10206;48.012;10.030;2023-02-01T07:42:38;95349.50;;;5.64
31528;BMP280;10206;48.012;10.030;2023-02-01T07:45:04;95352.28;;;5.58
31528;BMP280;10206;48.012;10.030;2023-02-01T07:47:31;95354.69;;;5.43
31528;BMP280;10206;48.012;10.030;2023-02-01T07:49:57;95346.13;;;5.58
31528;BMP280;10206;48.012;10.030;2023-02-01T07:52:23;95347.97;;;5.82
31528;BMP280;10206;48.012;10.030;2023-02-01T07:54:49;95349.06;;;5.60
31528;BMP280;10206;48.012;10.030;2023-02-01T07:57:15;95349.44;;;5.83
31528;BMP280;10206;48.012;10.030;2023-02-01T07:59:41;95346.13;;;5.90
31528;BMP280;10206;48.012;10.030;2023-02-01T08:02:27;95349.22;;;5.67
31528;BMP280;10206;48.012;10.030;2023-02-01T08:04:54;95346.34;;;5.92
31528;BMP280;10206;48.012;10.030;2023-02-01T08:07:20;95355.97;;;6.06
31528;BMP280;10206;48.012;10.030;2023-02-01T08:09:46;95355.84;;;5.98
31528;BMP280;10206;48.012;10.030;2023-02-01T08:12:12;95361.50;;;6.13
31528;BMP280;10206;48.012;10.030;2023-02-01T08:14:38;95372.97;;;5.88
31528;BMP280;10206;48.012;10.030;2023-02-01T08:17:06;95377.50;;;5.98
31528;BMP280;10206;48.012;10.030;2023-02-01T08:19:32;95378.16;;;6.17
31528;BMP280;10206;48.012;10.030;2023-02-01T08:21:58;95377.38;;;5.91
31528;BMP280;10206;48.012;10.030;2023-02-01T08:24:25;95381.09;;;6.32
31528;BMP280;10206;48.012;10.030;2023-02-01T08:26:51;95379.91;;;5.70
31528;BMP280;10206;48.012;10.030;2023-02-01T08:29:17;95379.66;;;5.87
31528;BMP280;10206;48.012;10.030;2023-02-01T08:31:43;95378.09;;;5.59
31528;BMP280;10206;48.012;10.030;2023-02-01T08:34:09;95387.72;;;6.05
31528;BMP280;10206;48.012;10.030;2023-02-01T08:36:37;95386.44;;;5.43
31528;BMP280;10206;48.012;10.030;2023-02-01T08:39:04;95399.50;;;5.76
31528;BMP280;10206;48.012;10.030;2023-02-01T08:41:34;95392.19;;;6.03
31528;BMP280;10206;48.012;10.030;2023-02-01T08:44:00;95392.69;;;6.01
31528;BMP280;10206;48.012;10.030;2023-02-01T08:46:27;95393.69;;;5.85
31528;BMP280;10206;48.012;10.030;2023-02-01T08:48:53;95390.50;;;6.00
31528;BMP280;10206;48.012;10.030;2023-02-01T08:51:20;95370.69;;;5.92
31528;BMP280;10206;48.012;10.030;2023-02-01T08:53:47;95372.25;;;5.87
31528;BMP280;10206;48.012;10.030;2023-02-01T08:56:15;95369.97;;;5.91
31528;BMP280;10206;48.012;10.030;2023-02-01T08:58:42;95378.59;;;6.21
31528;BMP280;10206;48.012;10.030;2023-02-01T09:01:10;95373.97;;;6.03
31528;BMP280;10206;48.012;10.030;2023-02-01T09:03:38;95385.69;;;5.61
31528;BMP280;10206;48.012;10.030;2023-02-01T09:06:06;95376.81;;;5.79
31528;BMP280;10206;48.012;10.030;2023-02-01T09:08:33;95380.09;;;6.04
31528;BMP280;10206;48.012;10.030;2023-02-01T09:11:05;95376.88;;;6.05
31528;BMP280;10206;48.012;10.030;2023-02-01T09:13:32;95379.63;;;6.18
31528;BMP280;10206;48.012;10.030;2023-02-01T09:15:59;95384.97;;;5.92
31528;BMP280;10206;48.012;10.030;2023-02-01T09:18:26;95386.13;;;5.84
31528;BMP280;10206;48.012;10.030;2023-02-01T09:20:52;95392.31;;;6.10
31528;BMP280;10206;48.012;10.030;2023-02-01T09:23:18;95383.94;;;5.95
31528;BMP280;10206;48.012;10.030;2023-02-01T09:25:46;95366.31;;;5.89
31528;BMP280;10206;48.012;10.030;2023-02-01T09:28:13;95348.34;;;6.04
31528;BMP280;10206;48.012;10.030;2023-02-01T09:30:39;95345.59;;;5.91
31528;BMP280;10206;48.012;10.030;2023-02-01T09:33:05;95356.38;;;5.97
31528;BMP280;10206;48.012;10.030;2023-02-01T09:35:31;95362.88;;;5.88
31528;BMP280;10206;48.012;10.030;2023-02-01T09:37:57;95384.03;;;6.35
31528;BMP280;10206;48.012;10.030;2023-02-01T09:40:23;95375.63;;;5.93
31528;BMP280;10206;48.012;10.030;2023-02-01T09:48:19;95382.53;;;6.20
31528;BMP280;10206;48.012;10.030;2023-02-01T09:50:52;95384.03;;;6.48
31528;BMP280;10206;48.012;10.030;2023-02-01T09:53:29;95384.03;;;6.74
31528;BMP280;10206;48.012;10.030;2023-02-01T09:56:21;95385.34;;;6.15
31528;BMP280;10206;48.012;10.030;2023-02-01T09:58:59;95396.09;;;6.33
31528;BMP280;10206;48.012;10.030;2023-02-01T10:01:27;95391.75;;;6.57
31528;BMP280;10206;48.012;10.030;2023-02-01T10:04:24;95390.16;;;6.22
31528;BMP280;10206;48.012;10.030;2023-02-01T10:09:54;95394.66;;;6.72
31528;BMP280;10206;48.012;10.030;2023-02-01T10:15:09;95398.00;;;6.91
31528;BMP280;10206;48.012;10.030;2023-02-01T10:24:02;95384.25;;;6.50
31528;BMP280;10206;48.012;10.030;2023-02-01T10:26:37;95406.75;;;6.45
31528;BMP280;10206;48.012;10.030;2023-02-01T10:29:09;95403.84;;;6.82
31528;BMP280;10206;48.012;10.030;2023-02-01T10:31:38;95401.50;;;6.33
31528;BMP280;10206;48.012;10.030;2023-02-01T10:34:32;95407.94;;;6.17
31528;BMP280;10206;48.012;10.030;2023-02-01T10:37:16;95394.66;;;6.32
31528;BMP280;10206;48.012;10.030;2023-02-01T10:39:47;95390.19;;;6.61
31528;BMP280;10206;48.012;10.030;2023-02-01T10:42:15;95398.34;;;6.87
31528;BMP280;10206;48.012;10.030;2023-02-01T10:44:43;95401.94;;;7.16
31528;BMP280;10206;48.012;10.030;2023-02-01T10:47:11;95394.88;;;7.34
31528;BMP280;10206;48.012;10.030;2023-02-01T10:50:06;95401.56;;;7.67
31528;BMP280;10206;48.012;10.030;2023-02-01T10:55:49;95400.78;;;7.79
31528;BMP280;10206;48.012;10.030;2023-02-01T10:58:18;95390.97;;;7.76
31528;BMP280;10206;48.012;10.030;2023-02-01T11:01:01;95387.47;;;7.89
31528;BMP280;10206;48.012;10.030;2023-02-01T11:03:44;95392.56;;;8.13
31528;BMP280;10206;48.012;10.030;2023-02-01T11:08:50;95390.97;;;8.46
31528;BMP280;10206;48.012;10.030;2023-02-01T11:11:17;95384.28;;;7.77
31528;BMP280;10206;48.012;10.030;2023-02-01T11:13:43;95392.56;;;7.92
31528;BMP280;10206;48.012;10.030;2023-02-01T11:16:14;95393.72;;;7.42
31528;BMP280;10206;48.012;10.030;2023-02-01T11:18:41;95389.25;;;7.86
31528;BMP280;10206;48.012;10.030;2023-02-01T11:21:09;95394.31;;;7.62
31528;BMP280;10206;48.012;10.030;2023-02-01T11:23:41;95381.09;;;7.66
31528;BMP280;10206;48.012;10.030;2023-02-01T11:26:14;95378.31;;;7.79
31528;BMP280;10206;48.012;10.030;2023-02-01T11:28:47;95385.13;;;7.51
31528;BMP280;10206;48.012;10.030;2023-02-01T11:31:16;95382.91;;;7.29
31528;BMP280;10206;48.012;10.030;2023-02-01T11:33:52;95380.78;;;7.48
31528;BMP280;10206;48.012;10.030;2023-02-01T11:36:23;95387.97;;;7.46
31528;BMP280;10206;48.012;10.030;2023-02-01T11:39:06;95369.44;;;7.57
31528;BMP280;10206;48.012;10.030;2023-02-01T11:41:34;95369.75;;;6.86
31528;BMP280;10206;48.012;10.030;2023-02-01T11:44:05;95367.44;;;7.37
31528;BMP280;10206;48.012;10.030;2023-02-01T11:46:41;95366.88;;;7.05
31528;BMP280;10206;48.012;10.030;2023-02-01T11:49:23;95367.78;;;7.54
31528;BMP280;10206;48.012;10.030;2023-02-01T12:00:45;95352.50;;;7.65
31528;BMP280;10206;48.012;10.030;2023-02-01T12:06:18;95345.22;;;7.59
31528;BMP280;10206;48.012;10.030;2023-02-01T12:11:38;95349.97;;;7.46
31528;BMP280;10206;48.012;10.030;2023-02-01T12:14:27;95355.00;;;7.63
31528;BMP280;10206;48.012;10.030;2023-02-01T12:25:30;95312.91;;;7.48
31528;BMP280;10206;48.012;10.030;2023-02-01T12:33:51;95294.03;;;8.12
31528;BMP280;10206;48.012;10.030;2023-02-01T12:42:37;95290.16;;;8.08
31528;BMP280;10206;48.012;10.030;2023-02-01T12:47:47;95282.06;;;7.38
31528;BMP280;10206;48.012;10.030;2023-02-01T12:50:22;95284.34;;;7.76
31528;BMP280;10206;48.012;10.030;2023-02-01T12:52:58;95285.78;;;7.48
31528;BMP280;10206;48.012;10.030;2023-02-01T12:55:45;95288.53;;;7.56
31528;BMP280;10206;48.012;10.030;2023-02-01T12:58:27;95271.75;;;7.65
31528;BMP280;10206;48.012;10.030;2023-02-01T13:06:43;95290.03;;;7.23
31528;BMP280;10206;48.012;10.030;2023-02-01T13:09:27;95290.91;;;7.18
31528;BMP280;10206;48.012;10.030;2023-02-01T13:11:55;95291.88;;;7.08
31528;BMP280;10206;48.012;10.030;2023-02-01T13:14:35;95292.03;;;7.43
31528;BMP280;10206;48.012;10.030;2023-02-01T13:17:08;95300.97;;;7.10
31528;BMP280;10206;48.012;10.030;2023-02-01T13:22:22;95290.66;;;7.29
31528;BMP280;10206;48.012;10.030;2023-02-01T13:24:55;95290.31;;;7.12
31528;BMP280;10206;48.012;10.030;2023-02-01T13:27:22;95283.50;;;6.85
31528;BMP280;10206;48.012;10.030;2023-02-01T13:29:56;95283.06;;;6.94
31528;BMP280;10206;48.012;10.030;2023-02-01T13:32:48;95280.88;;;6.46
31528;BMP280;10206;48.012;10.030;2023-02-01T13:43:35;95274.63;;;6.84
31528;BMP280;10206;48.012;10.030;2023-02-01T13:46:09;95270.97;;;6.82
31528;BMP280;10206;48.012;10.030;2023-02-01T13:48:59;95270.97;;;6.82
31528;BMP280;10206;48.012;10.030;2023-02-01T13:51:43;95274.06;;;6.65
31528;BMP280;10206;48.012;10.030;2023-02-01T13:54:30;95272.28;;;6.68
31528;BMP280;10206;48.012;10.030;2023-02-01T13:56:58;95276.31;;;6.87
31528;BMP280;10206;48.012;10.030;2023-02-01T14:05:11;95279.50;;;6.52
31528;BMP280;10206;48.012;10.030;2023-02-01T14:26:41;95287.63;;;6.99
31528;BMP280;10206;48.012;10.030;2023-02-01T14:32:04;95305.25;;;6.92
31528;BMP280;10206;48.012;10.030;2023-02-01T14:42:38;95299.56;;;6.83
31528;BMP280;10206;48.012;10.030;2023-02-01T14:47:50;95296.91;;;6.44
31528;BMP280;10206;48.012;10.030;2023-02-01T14:58:45;95281.03;;;7.28
31528;BMP280;10206;48.012;10.030;2023-02-01T15:01:24;95287.22;;;7.49
31528;BMP280;10206;48.012;10.030;2023-02-01T15:06:33;95297.69;;;7.45
31528;BMP280;10206;48.012;10.030;2023-02-01T15:16:59;95297.88;;;7.27
31528;BMP280;10206;48.012;10.030;2023-02-01T15:19:28;95304.34;;;7.44
31528;BMP280;10206;48.012;10.030;2023-02-01T15:21:56;95306.75;;;6.80
31528;BMP280;10206;48.012;10.030;2023-02-01T15:24:28;95298.97;;;7.31
31528;BMP280;10206;48.012;10.030;2023-02-01T15:26:55;95304.50;;;6.71
31528;BMP280;10206;48.012;10.030;2023-02-01T15:29:24;95307.06;;;6.90
31528;BMP280;10206;48.012;10.030;2023-02-01T15:31:53;95310.88;;;6.94
31528;BMP280;10206;48.012;10.030;2023-02-01T15:34:21;95318.91;;;7.13
31528;BMP280;10206;48.012;10.030;2023-02-01T15:36:47;95313.13;;;6.83
31528;BMP280;10206;48.012;10.030;2023-02-01T15:39:24;95310.09;;;6.86
31528;BMP280;10206;48.012;10.030;2023-02-01T15:42:09;95314.56;;;6.97
31528;BMP280;10206;48.012;10.030;2023-02-01T15:44:43;95315.91;;;7.04
31528;BMP280;10206;48.012;10.030;2023-02-01T15:47:26;95321.47;;;7.19
31528;BMP280;10206;48.012;10.030;2023-02-01T15:49:54;95328.53;;;6.88
31528;BMP280;10206;48.012;10.030;2023-02-01T15:52:34;95331.44;;;7.03
31528;BMP280;10206;48.012;10.030;2023-02-01T15:55:06;95325.53;;;7.25
31528;BMP280;10206;48.012;10.030;2023-02-01T15:57:40;95320.16;;;7.12
31528;BMP280;10206;48.012;10.030;2023-02-01T16:00:28;95319.34;;;6.91
31528;BMP280;10206;48.012;10.030;2023-02-01T16:02:58;95311.56;;;6.87
31528;BMP280;10206;48.012;10.030;2023-02-01T16:05:35;95322.84;;;6.65
31528;BMP280;10206;48.012;10.030;2023-02-01T16:08:24;95322.72;;;6.84
31528;BMP280;10206;48.012;10.030;2023-02-01T16:10:53;95323.78;;;6.68
31528;BMP280;10206;48.012;10.030;2023-02-01T16:13:20;95318.34;;;6.68
31528;BMP280;10206;48.012;10.030;2023-02-01T16:15:47;95328.91;;;6.58
31528;BMP280;10206;48.012;10.030;2023-02-01T16:18:14;95325.88;;;6.62
31528;BMP280;10206;48.012;10.030;2023-02-01T16:20:42;95320.66;;;6.64
31528;BMP280;10206;48.012;10.030;2023-02-01T16:23:09;95329.81;;;6.74
31528;BMP280;10206;48.012;10.030;2023-02-01T16:25:37;95336.69;;;6.75
31528;BMP280;10206;48.012;10.030;2023-02-01T16:28:03;95330.31;;;5.94
31528;BMP280;10206;48.012;10.030;2023-02-01T16:30:31;95342.75;;;6.81
31528;BMP280;10206;48.012;10.030;2023-02-01T16:32:59;95338.13;;;6.89
31528;BMP280;10206;48.012;10.030;2023-02-01T16:35:30;95335.53;;;6.83
31528;BMP280;10206;48.012;10.030;2023-02-01T16:38:02;95336.72;;;6.49
31528;BMP280;10206;48.012;10.030;2023-02-01T16:40:28;95335.88;;;6.54
31528;BMP280;10206;48.012;10.030;2023-02-01T16:42:55;95341.19;;;6.59
31528;BMP280;10206;48.012;10.030;2023-02-01T16:45:21;95343.66;;;6.83
31528;BMP280;10206;48.012;10.030;2023-02-01T16:47:51;95345.94;;;6.92
31528;BMP280;10206;48.012;10.030;2023-02-01T16:50:20;95351.38;;;6.66
31528;BMP280;10206;48.012;10.030;2023-02-01T16:52:47;95347.25;;;6.39
31528;BMP280;10206;48.012;10.030;2023-02-01T16:55:15;95354.22;;;6.48
31528;BMP280;10206;48.012;10.030;2023-02-01T16:57:42;95354.00;;;6.72
31528;BMP280;10206;48.012;10.030;2023-02-01T17:00:10;95354.53;;;6.70
31528;BMP280;10206;48.012;10.030;2023-02-01T17:02:37;95351.50;;;6.21
31528;BMP280;10206;48.012;10.030;2023-02-01T17:05:04;95355.47;;;6.47